首页
METAR-TAF:

METAR-TAF

机场 :

蒙特利尔皮埃尔·埃利奥特·特鲁多国际机场

蒙特利尔特鲁多, 魁北克, 加拿大

纬度: 45-28N, 经度: 073-45W, 海拔: 31米

当前天气观测

该预报发布于1小时和10分钟前的01:00 UTC
风速10节,风向西,有时为16节阵风
温度 14°C
湿度 94%
气压 1010 hPa
能見度: 24.1公里
少量云层高于1200英尺
多云层高于1800英尺
阴天层高于7000英尺
小雨

METAR: CYUL 310100Z 26010G16KT 15SM -RA FEW012 BKN018 OVC070 14/13 A2982 RMK SF1SC5AC2 SLP100 DENSITY ALT 200FT

时间: 22:10 (02:10 UTC)

预报

该预报发布于2小时和32分钟前的23:38 UTC
预报有效从31日的 00点(UTC)到 31日的 24点(UTC)
风速12节,风向西,有时为22节阵风
能見度: 10公里
阴天层高于3000英尺
短暂存在
从 31日的 00点(UTC)到 31日的 02点(UTC)
风速20节,风向多变,有时为35节阵风
能見度: 4.8公里
阴天层高于2000英尺
阵雨, 轻雾
从 31日的 0200点(UTC)
风速12节,风向西转西北,有时为22节阵风
能見度: 10公里
多云层高于2000英尺
短暂存在
从 31日的 02点(UTC)到 31日的 07点(UTC)
多云层高于3000英尺
从 31日的 0700点(UTC)
风速12节,风向西转西北,有时为22节阵风
能見度: 10公里
散云层高于4000英尺
从 31日的 1500点(UTC)
风速15节,风向西转西北
能見度: 10公里
多云层高于6000英尺

TAF: CYUL 302338Z 3100/3124 27012G22KT P6SM OVC030 TEMPO 3100/3102 VRB20G35KT 3SM SHRA BR OVC020 FM310200 30012G22KT P6SM BKN020 TEMPO 3102/3107 BKN030 FM310700 30012G22KT P6SM SCT040 FM311500 29015KT P6SM BKN060 RMK NXT FCST BY 310300Z

超过4000个机场的气象观测和天气预报(METAR&TAF报告)。

可查询的气象台以黄色和红色小点在地图上表示。

将鼠标移到小点上方,可查看气象台名称。

然后点击查看天气观测和预报。

如需切换地图:点击带黑十字的绿色按钮放大地图;点击带横线的绿色按钮缩小地图;或者点击绿色箭头查看邻近地区的地图。


METAR-TAF: